Time;durP1;ratioP1;P1;durP2;ratioP2;P2;SDS_P1;SDS_P2;PMS_P1;PMS_P2;Temp;Humidity;BMP_temperature;BMP_pressure;BME280_temperature;BME280_humidity;BME280_pressure;Samples;Min_cycle;Max_cycle;Signal;HPM_P1;HPM_P2
2021/12/08 00:00:53;;;;;;;43.88;15.48;;;1.70;78.10;;;0.78;65.04;94117.19;5056241;28;20254;-80
2021/12/08 00:03:24;;;;;;;49.45;15.77;;;1.70;78.30;;;0.84;65.11;94103.66;5035366;28;20218;-80
2021/12/08 00:05:51;;;;;;;46.30;15.68;;;1.80;78.40;;;0.93;64.97;94105.34;5072096;28;20211;-79
2021/12/08 00:08:22;;;;;;;45.10;15.23;;;1.80;79.20;;;1.00;65.18;94100.41;5039386;28;20264;-80
2021/12/08 00:13:20;;;;;;;52.53;15.52;;;2.00;78.60;;;1.13;65.03;94084.47;5070908;28;20239;-80
2021/12/08 00:15:52;;;;;;;59.35;15.95;;;2.00;78.60;;;1.20;65.18;94088.06;5038952;28;20223;-79
2021/12/08 00:18:27;;;;;;;56.05;15.27;;;2.10;78.60;;;1.26;65.35;94084.84;5055741;28;20197;-80
2021/12/08 00:20:59;;;;;;;43.60;15.18;;;2.10;78.70;;;1.31;65.22;94080.97;5035430;28;20567;-80
2021/12/08 00:23:28;;;;;;;41.38;14.82;;;2.20;78.70;;;1.35;65.29;94079.72;5067795;28;20239;-81
2021/12/08 00:25:57;;;;;;;74.38;16.55;;;2.20;78.60;;;1.37;65.46;94082.97;5068241;28;20216;-80
2021/12/08 00:28:25;;;;;;;53.08;17.08;;;2.30;78.70;;;1.36;65.22;94071.81;5035406;28;20204;-80
2021/12/08 00:30:58;;;;;;;33.13;15.57;;;2.30;78.70;;;1.42;65.35;94075.56;5041863;28;20212;-79
2021/12/08 00:33:27;;;;;;;59.72;15.80;;;2.40;79.60;;;1.44;65.38;94071.00;5067838;28;20570;-80
2021/12/08 00:35:59;;;;;;;38.42;14.77;;;2.40;78.70;;;1.45;65.57;94064.88;5070787;28;20341;-80
2021/12/08 00:38:27;;;;;;;67.55;15.85;;;2.40;78.70;;;1.50;65.18;94070.41;5055201;28;20214;-80
2021/12/08 00:40:54;;;;;;;48.42;15.95;;;2.40;78.70;;;1.52;65.45;94058.13;5055484;28;20303;-79
2021/12/08 00:43:22;;;;;;;45.65;15.13;;;2.50;78.70;;;1.52;65.58;94058.13;5070817;28;20244;-80
2021/12/08 00:45:51;;;;;;;43.78;15.27;;;2.50;78.70;;;1.55;65.33;94054.41;5038661;28;20755;-80
2021/12/08 00:48:20;;;;;;;39.58;15.45;;;2.50;78.70;;;1.60;65.35;94050.41;5054934;28;20223;-80
2021/12/08 00:50:49;;;;;;;42.65;15.55;;;2.50;78.70;;;1.65;65.35;94047.34;5070800;28;20302;-80
2021/12/08 00:53:17;;;;;;;38.92;16.70;;;2.50;78.80;;;1.67;65.36;94047.19;5071391;28;20272;-81
2021/12/08 00:55:44;;;;;;;28.58;16.58;;;2.60;78.80;;;1.67;65.77;94048.00;5055049;28;20269;-80
2021/12/08 00:58:12;;;;;;;39.85;16.25;;;2.60;78.80;;;1.69;65.58;94045.25;5066971;28;20207;-80
2021/12/08 01:00:45;;;;;;;31.75;17.00;;;2.60;78.80;;;1.73;65.97;94047.38;5051342;28;20239;-80
2021/12/08 01:03:14;;;;;;;35.13;17.35;;;2.70;78.80;;;1.76;65.55;94038.47;5068146;28;20561;-80
2021/12/08 01:05:49;;;;;;;33.42;17.13;;;2.70;78.90;;;1.79;65.61;94038.16;5068114;28;20214;-80
2021/12/08 01:08:19;;;;;;;28.10;15.73;;;2.70;78.90;;;1.81;65.50;94041.41;5053920;28;20637;-80
2021/12/08 01:10:50;;;;;;;31.50;17.00;;;2.70;78.80;;;1.82;65.94;94037.84;5054197;28;20387;-80
2021/12/08 01:13:17;;;;;;;29.55;16.85;;;2.80;78.90;;;1.86;65.72;94038.34;5054591;28;20262;-79
2021/12/08 01:15:50;;;;;;;32.45;16.60;;;2.80;78.90;;;1.90;65.70;94029.28;5036844;28;20295;-79
2021/12/08 01:18:18;;;;;;;30.50;16.80;;;2.80;79.70;;;1.92;65.59;94038.50;5070446;28;20290;-79
2021/12/08 01:20:47;;;;;;;31.77;17.67;;;2.90;79.00;;;1.96;65.58;94023.47;5053918;28;20207;-80
2021/12/08 01:23:15;;;;;;;36.50;19.45;;;2.90;78.90;;;1.98;65.84;94025.88;5054063;28;20669;-80
2021/12/08 01:25:43;;;;;;;36.67;20.48;;;2.90;78.90;;;1.93;65.71;94010.88;5053002;28;20298;-79
2021/12/08 01:28:11;;;;;;;37.20;19.60;;;2.90;78.90;;;1.99;66.12;94022.34;5053535;28;20231;-79
2021/12/08 01:30:39;;;;;;;40.80;21.02;;;2.90;78.90;;;1.98;65.93;94008.59;5054228;28;20219;-80
2021/12/08 01:33:06;;;;;;;41.28;21.15;;;3.00;78.90;;;2.01;65.52;94010.84;5053749;28;20294;-79
2021/12/08 01:35:33;;;;;;;46.00;23.83;;;3.00;78.90;;;2.02;65.77;94015.06;5034622;28;20216;-80
2021/12/08 01:38:01;;;;;;;44.45;23.40;;;3.00;78.90;;;1.98;65.61;94011.19;5034413;28;20207;-80
2021/12/08 01:40:28;;;;;;;40.30;21.48;;;3.00;78.80;;;2.04;65.50;94012.34;5067832;28;20314;-79
2021/12/08 01:42:58;;;;;;;45.33;24.38;;;3.00;78.80;;;2.04;65.72;94020.88;5051070;28;20249;-80
2021/12/08 01:48:18;;;;;;;44.00;22.80;;;3.00;78.80;;;2.02;65.73;94002.13;5071947;28;20282;-80
2021/12/08 01:51:01;;;;;;;44.83;23.45;;;3.00;78.80;;;2.06;65.77;94003.44;5057702;28;20227;-80
2021/12/08 01:53:30;;;;;;;41.92;22.23;;;3.00;78.80;;;2.04;65.69;93987.25;5074883;28;20284;-81
2021/12/08 01:55:58;;;;;;;40.05;21.20;;;3.00;78.80;;;2.07;65.57;93993.88;5057524;28;20191;-79
2021/12/08 01:58:27;;;;;;;36.88;21.25;;;3.00;78.80;;;2.04;65.49;93989.84;5073898;28;20195;-79
2021/12/08 02:01:03;;;;;;;42.70;21.60;;;3.00;78.80;;;2.08;65.57;93991.13;5057687;28;20254;-79
2021/12/08 02:03:30;;;;;;;43.33;22.58;;;3.10;78.90;;;2.07;65.57;93970.63;5054811;28;20202;-80
2021/12/08 02:05:59;;;;;;;42.65;21.88;;;3.10;78.80;;;2.05;65.49;93973.38;5065288;28;20282;-80
2021/12/08 02:08:27;;;;;;;43.50;22.17;;;3.10;78.80;;;2.06;65.85;93977.56;5074615;28;20195;-80
2021/12/08 02:10:55;;;;;;;38.00;20.70;;;3.10;78.80;;;2.07;65.83;93968.81;5074284;28;20582;-79
2021/12/08 02:13:22;;;;;;;37.38;20.95;;;3.00;78.60;;;2.04;65.43;93966.56;5056951;28;20230;-80
2021/12/08 02:15:50;;;;;;;39.72;22.02;;;3.10;78.70;;;2.03;65.41;93964.16;5041561;28;20690;-78
2021/12/08 02:18:18;;;;;;;38.25;21.60;;;3.10;78.70;;;2.02;65.65;93965.13;5041261;28;20219;-80
2021/12/08 02:20:50;;;;;;;42.72;22.35;;;3.10;78.60;;;2.00;65.55;93956.72;5056501;28;20207;-79
2021/12/08 02:23:19;;;;;;;53.90;24.55;;;3.10;78.60;;;1.95;66.08;93961.56;5057970;28;20195;-80
2021/12/08 02:25:47;;;;;;;49.45;24.75;;;3.10;78.50;;;1.90;65.52;93955.13;5041051;28;20212;-79
2021/12/08 02:28:14;;;;;;;43.47;22.85;;;3.00;78.50;;;1.87;65.37;93949.47;5074255;28;20604;-80
2021/12/08 02:30:53;;;;;;;44.17;21.48;;;3.00;78.50;;;1.82;65.33;93942.19;5074254;28;20799;-80
2021/12/08 02:50:08;;;;;;;41.70;21.25;;;2.80;78.30;;;1.58;65.44;93912.75;5051871;28;20689;-80
2021/12/08 02:52:35;;;;;;;38.00;20.77;;;2.70;78.20;;;1.57;65.37;93912.94;5070648;28;20290;-79
2021/12/08 02:55:07;;;;;;;43.72;19.63;;;2.70;78.30;;;1.55;65.69;93912.28;5034562;28;20224;-79
2021/12/08 02:57:34;;;;;;;48.08;18.85;;;2.70;78.30;;;1.53;65.67;93909.84;5036008;28;20219;-80
2021/12/08 03:00:09;;;;;;;50.00;17.83;;;2.70;78.30;;;1.48;65.49;93904.38;5057310;28;20677;-79
2021/12/08 03:02:36;;;;;;;47.00;18.75;;;2.60;78.30;;;1.52;65.68;93908.25;5052635;28;20189;-78
2021/12/08 03:05:04;;;;;;;51.38;20.55;;;2.60;78.40;;;1.48;65.32;93900.97;5071735;28;20237;-79
2021/12/08 03:07:32;;;;;;;40.38;18.40;;;2.60;78.40;;;1.50;65.85;93912.78;5039044;28;20203;-79
2021/12/08 03:10:14;;;;;;;34.13;18.15;;;2.60;78.40;;;1.47;65.71;93910.50;5053823;28;20212;-79
2021/12/08 03:12:42;;;;;;;39.17;17.63;;;2.60;78.50;;;1.53;65.28;93903.91;5053360;28;20211;-79
2021/12/08 03:15:12;;;;;;;41.92;18.25;;;2.60;78.50;;;1.53;65.73;93904.69;5053772;28;20286;-79
2021/12/08 03:17:40;;;;;;;36.67;17.30;;;2.60;78.50;;;1.54;65.30;93908.91;5070578;28;20263;-79
2021/12/08 03:20:14;;;;;;;35.47;18.30;;;2.60;78.50;;;1.52;65.57;93902.28;5053780;28;20242;-79
2021/12/08 03:22:47;;;;;;;44.80;17.95;;;2.60;78.50;;;1.51;65.50;93903.25;5068952;28;20439;-79
2021/12/08 03:25:18;;;;;;;42.60;19.25;;;2.60;78.50;;;1.48;65.58;93895.78;5087301;28;20766;-79
2021/12/08 03:27:53;;;;;;;42.92;18.80;;;2.60;78.40;;;1.50;65.53;93893.88;5071687;28;20176;-79
2021/12/08 03:30:33;;;;;;;50.47;19.88;;;2.60;78.40;;;1.47;65.52;93889.84;5054920;28;20272;-80
2021/12/08 03:33:01;;;;;;;41.58;18.67;;;2.60;78.40;;;1.46;65.49;93883.03;5069578;28;20219;-78
2021/12/08 03:35:29;;;;;;;41.63;19.90;;;2.50;78.40;;;1.45;65.62;93889.19;5037956;28;20219;-78
2021/12/08 03:37:58;;;;;;;37.97;19.73;;;2.50;78.40;;;1.42;65.61;93890.31;5010941;28;1341268;-79
2021/12/08 03:40:27;;;;;;;41.10;19.45;;;2.50;78.40;;;1.41;65.53;93878.34;5054588;28;20232;-78
2021/12/08 03:42:58;;;;;;;48.13;20.55;;;2.50;78.40;;;1.35;65.82;93868.66;5052191;28;20238;-78
2021/12/08 03:45:37;;;;;;;48.60;19.23;;;2.50;78.50;;;1.40;65.35;93878.53;5037018;28;20701;-79
2021/12/08 03:48:09;;;;;;;42.60;19.95;;;2.50;78.50;;;1.38;65.50;93870.13;5070469;28;20191;-80
2021/12/08 03:50:40;;;;;;;49.40;20.40;;;2.50;78.50;;;1.36;65.66;93856.56;5050940;28;20280;-80
2021/12/08 03:53:12;;;;;;;46.92;18.70;;;2.50;78.50;;;1.33;65.67;93860.28;5036105;28;20219;-78
2021/12/08 03:55:40;;;;;;;57.38;19.08;;;2.50;78.40;;;1.33;65.58;93846.56;5052326;28;20227;-78
2021/12/08 03:58:07;;;;;;;65.50;22.48;;;2.40;78.40;;;1.31;65.57;93845.91;5060952;28;20195;-79
2021/12/08 04:00:35;;;;;;;53.38;21.67;;;2.40;78.40;;;1.25;65.65;93835.25;5069759;28;20268;-79
2021/12/08 04:03:04;;;;;;;47.70;21.63;;;2.40;78.40;;;1.26;65.44;93836.88;5053227;28;20206;-79
2021/12/08 04:08:28;;;;;;;46.05;24.30;;;2.40;78.40;;;1.20;65.82;93808.31;5069650;28;20187;-79
2021/12/08 04:10:56;;;;;;;43.45;21.52;;;2.40;78.40;;;1.15;65.77;93800.22;5070068;28;20223;-79
2021/12/08 04:13:35;;;;;;;46.30;21.23;;;2.30;78.50;;;1.15;65.79;93801.03;5049070;28;20220;-79
2021/12/08 04:16:04;;;;;;;43.95;21.77;;;2.30;78.50;;;1.14;65.93;93802.00;5033818;28;20265;-79
2021/12/08 04:18:32;;;;;;;44.40;22.63;;;2.30;78.50;;;1.13;66.06;93795.22;5019878;28;20650;-80
2021/12/08 04:21:03;;;;;;;42.83;22.23;;;2.30;78.50;;;1.15;66.27;93798.47;5053381;28;20241;-79
2021/12/08 04:23:35;;;;;;;45.08;23.80;;;2.20;78.60;;;1.15;65.90;93798.47;5054813;28;20612;-80
2021/12/08 04:26:27;;;;;;;49.15;24.15;;;2.20;78.70;;;1.16;65.94;93807.81;5039801;28;20207;-79
2021/12/08 04:28:55;;;;;;;47.20;23.10;;;2.20;78.70;;;1.16;65.79;93814.75;5055139;28;20220;-79
2021/12/08 04:31:32;;;;;;;50.47;24.42;;;2.20;78.70;;;1.19;65.85;93810.06;5071345;28;20195;-80
2021/12/08 04:34:04;;;;;;;51.35;23.40;;;2.20;78.70;;;1.15;65.89;93802.78;5054882;28;20230;-79
2021/12/08 04:36:42;;;;;;;48.47;23.42;;;2.20;78.70;;;1.18;65.86;93812.81;5055314;28;20249;-80
2021/12/08 04:39:27;;;;;;;53.15;24.02;;;2.30;78.80;;;1.14;65.91;93808.94;5039175;28;20574;-79
2021/12/08 04:42:02;;;;;;;50.45;22.95;;;2.20;78.60;;;1.15;65.96;93813.94;5044927;28;20673;-79
2021/12/08 05:06:50;;;;;;;50.28;23.90;;;2.20;78.70;;;1.08;66.03;93813.78;5056220;28;20211;-79
2021/12/08 05:09:25;;;;;;;56.13;24.27;;;2.20;78.80;;;1.08;66.35;93802.66;5055169;28;20273;-80
2021/12/08 05:12:20;;;;;;;53.00;25.73;;;2.20;78.80;;;1.08;66.38;93805.22;5071094;28;20656;-80
2021/12/08 05:14:58;;;;;;;49.67;24.13;;;2.20;78.90;;;1.07;66.18;93803.63;5047079;28;20293;-80
2021/12/08 05:17:55;;;;;;;50.00;23.55;;;2.20;78.90;;;1.11;65.97;93805.72;5054360;28;20195;-80
2021/12/08 05:20:38;;;;;;;48.22;22.77;;;2.20;78.90;;;1.11;66.08;93810.88;5042876;28;20220;-80
2021/12/08 05:23:15;;;;;;;46.03;22.98;;;2.20;79.00;;;1.11;66.26;93805.72;5052336;28;20215;-80
2021/12/08 05:25:45;;;;;;;44.15;22.23;;;2.20;79.00;;;1.17;66.04;93804.25;5054996;28;20249;-80
2021/12/08 05:28:17;;;;;;;53.40;24.67;;;2.20;79.00;;;1.18;66.13;93795.53;5059249;28;20230;-79
2021/12/08 05:30:55;;;;;;;53.80;23.73;;;2.20;79.00;;;1.17;66.16;93786.16;5068444;28;20219;-79
2021/12/08 05:33:24;;;;;;;54.15;26.08;;;2.20;79.00;;;1.18;66.24;93792.94;5036204;28;20230;-78
2021/12/08 05:35:52;;;;;;;54.72;25.15;;;2.30;79.10;;;1.12;66.37;93785.84;5085725;28;20238;-79
2021/12/08 05:38:20;;;;;;;57.13;26.05;;;2.20;79.00;;;1.18;66.01;93787.78;5050363;28;20203;-79
2021/12/08 05:41:05;;;;;;;58.88;26.25;;;2.20;79.00;;;1.21;66.16;93799.56;5068172;28;20758;-78
2021/12/08 05:43:32;;;;;;;54.53;27.05;;;2.30;79.10;;;1.20;66.06;93790.22;5035756;28;20549;-79
2021/12/08 05:46:00;;;;;;;61.75;28.50;;;2.20;78.90;;;1.20;66.20;93796.19;5061495;28;20226;-79
2021/12/08 05:48:30;;;;;;;54.08;26.75;;;2.30;78.90;;;1.21;66.27;93794.41;5076167;28;20187;-79
2021/12/08 05:51:04;;;;;;;57.88;27.77;;;2.30;79.00;;;1.20;66.12;93785.06;5058965;28;20229;-80
2021/12/08 05:53:34;;;;;;;59.95;28.90;;;2.30;79.00;;;1.21;66.05;93791.81;5069727;28;20634;-79
2021/12/08 05:56:06;;;;;;;58.05;27.42;;;2.30;79.00;;;1.23;66.18;93795.06;5052438;28;20332;-79
2021/12/08 05:58:34;;;;;;;56.38;26.55;;;2.30;78.90;;;1.23;66.25;93792.47;5034233;28;20194;-80
2021/12/08 06:01:11;;;;;;;51.03;26.27;;;2.30;78.90;;;1.24;66.25;93792.31;5052653;28;20272;-80
2021/12/08 06:03:41;;;;;;;66.00;28.00;;;2.30;78.90;;;1.24;66.05;93787.13;5052162;28;20206;-79
2021/12/08 06:06:11;;;;;;;58.40;27.38;;;2.30;78.90;;;1.27;66.08;93788.63;5068817;28;20669;-79
2021/12/08 06:08:39;;;;;;;61.80;29.02;;;2.30;78.90;;;1.24;65.98;93788.94;5051217;28;20299;-79
2021/12/08 06:11:10;;;;;;;57.35;26.83;;;2.30;78.90;;;1.24;65.89;93784.56;5047498;28;20669;-79
2021/12/08 06:13:39;;;;;;;50.88;24.23;;;2.30;78.80;;;1.22;65.89;93783.94;5048560;28;20220;-79
2021/12/08 06:16:10;;;;;;;46.40;22.33;;;2.30;78.80;;;1.20;66.02;93785.84;5063557;28;20206;-78
2021/12/08 06:18:39;;;;;;;43.55;22.05;;;2.30;78.70;;;1.17;65.91;93785.38;5052069;28;20199;-80
2021/12/08 06:21:15;;;;;;;46.08;22.67;;;2.30;78.70;;;1.13;65.57;93782.31;5067541;28;20199;-79
2021/12/08 06:23:44;;;;;;;43.58;22.25;;;2.30;78.70;;;1.13;66.08;93794.44;5031681;28;20220;-78
2021/12/08 06:26:14;;;;;;;45.20;22.70;;;2.30;78.70;;;1.08;65.56;93789.72;5049781;28;20206;-79
2021/12/08 06:28:42;;;;;;;40.10;21.63;;;2.20;78.60;;;1.10;65.92;93780.84;5066480;28;20256;-79
2021/12/08 06:31:13;;;;;;;41.65;20.67;;;2.20;78.70;;;1.10;65.99;93785.22;5071886;28;20191;-79
2021/12/08 06:33:41;;;;;;;39.25;19.63;;;2.20;78.80;;;1.16;66.10;93784.56;5074961;28;20211;-80
2021/12/08 06:36:17;;;;;;;36.42;18.48;;;2.20;78.70;;;1.16;66.08;93782.00;5057363;28;20286;-79
2021/12/08 06:38:49;;;;;;;38.42;19.77;;;2.20;78.80;;;1.17;66.14;93786.16;5057382;28;20190;-79
2021/12/08 06:41:25;;;;;;;41.53;20.65;;;2.20;78.70;;;1.18;65.66;93777.44;5073337;28;20546;-80
2021/12/08 06:44:04;;;;;;;50.33;24.33;;;2.20;78.80;;;1.18;66.04;93781.81;5073282;28;20202;-79
2021/12/08 06:46:31;;;;;;;59.47;27.58;;;2.20;78.80;;;1.19;65.89;93776.50;5057510;28;20190;-79
2021/12/08 06:49:02;;;;;;;53.03;26.27;;;2.20;79.50;;;1.18;65.79;93769.72;5069409;28;20587;-78
2021/12/08 06:51:46;;;;;;;69.80;29.17;;;2.20;78.70;;;1.17;65.74;93770.66;5053793;28;20199;-78
2021/12/08 06:54:44;;;;;;;54.25;26.45;;;2.30;78.80;;;1.16;65.60;93773.41;5053755;28;20223;-79
2021/12/08 06:57:20;;;;;;;56.75;26.33;;;2.30;78.80;;;1.18;66.05;93772.28;5054643;28;20655;-78
2021/12/08 06:59:59;;;;;;;59.05;28.90;;;2.30;78.70;;;1.18;65.59;93768.91;5055700;28;20222;-78
2021/12/08 07:03:30;;;;;;;61.92;29.15;;;2.30;78.70;;;1.15;66.08;93767.47;5056230;28;20631;-78
2021/12/08 07:05:31;;;;;;;57.67;27.55;;;2.30;78.70;;;1.14;66.11;93776.19;5051563;28;20222;-79
2021/12/08 07:08:08;;;;;;;56.65;26.52;;;2.30;78.70;;;1.14;65.70;93776.19;5072602;28;20244;-79
2021/12/08 07:10:42;;;;;;;53.40;26.08;;;2.20;78.70;;;1.16;65.97;93784.56;5056443;28;20294;-79
2021/12/08 07:13:19;;;;;;;64.10;28.17;;;2.20;78.70;;;1.16;66.06;93776.81;5056580;28;20198;-79
2021/12/08 07:15:56;;;;;;;52.92;25.73;;;2.20;78.70;;;1.19;65.60;93773.13;5073123;28;20689;-78
2021/12/08 07:18:54;;;;;;;58.05;26.67;;;2.20;78.70;;;1.17;65.95;93775.84;5054521;28;20192;-79
2021/12/08 07:21:27;;;;;;;56.75;26.20;;;2.30;78.80;;;1.19;65.89;93779.06;5056179;28;20290;-79
2021/12/08 07:24:11;;;;;;;59.53;28.60;;;2.20;78.70;;;1.23;65.78;93787.31;5056417;28;20211;-79
2021/12/08 07:26:40;;;;;;;55.85;26.38;;;2.30;78.80;;;1.24;65.82;93784.56;5055985;28;20191;-79
2021/12/08 07:29:11;;;;;;;54.42;26.25;;;2.30;78.80;;;1.24;65.83;93784.56;5036026;28;20781;-79
2021/12/08 07:31:46;;;;;;;52.28;25.52;;;2.30;78.80;;;1.26;65.78;93787.00;5071482;28;20602;-79
2021/12/08 07:34:20;;;;;;;56.90;27.02;;;2.30;78.80;;;1.27;65.91;93781.66;5056269;28;20616;-79
2021/12/08 07:36:55;;;;;;;51.47;24.88;;;2.30;78.70;;;1.28;65.69;93778.09;5056005;28;20223;-78
2021/12/08 07:39:29;;;;;;;48.63;24.27;;;2.30;78.70;;;1.30;65.57;93779.72;5054078;28;20465;-81
2021/12/08 07:42:09;;;;;;;47.42;23.73;;;2.30;78.70;;;1.28;65.78;93772.94;5069871;28;20253;-81
2021/12/08 07:44:37;;;;;;;46.50;24.80;;;2.30;78.60;;;1.30;65.68;93761.66;5084718;28;20265;-81
2021/12/08 07:47:09;;;;;;;46.20;22.73;;;2.30;78.60;;;1.33;65.76;93759.53;5062812;28;20233;-80
2021/12/08 07:49:48;;;;;;;40.72;20.65;;;2.30;78.60;;;1.34;65.68;93748.22;5071701;28;20472;-80
2021/12/08 07:52:36;;;;;;;36.45;19.60;;;2.30;78.70;;;1.34;65.74;93743.03;5056697;28;20584;-81
2021/12/08 07:55:18;;;;;;;36.17;19.50;;;2.40;78.70;;;1.35;65.45;93752.41;5068932;28;20373;-80
2021/12/08 07:57:46;;;;;;;39.08;19.90;;;2.40;78.50;;;1.35;65.51;93747.25;5036514;28;20207;-79
2021/12/08 08:00:24;;;;;;;38.80;20.15;;;2.40;78.50;;;1.34;65.74;93744.84;5052241;28;20223;-81
2021/12/08 08:02:52;;;;;;;37.95;20.17;;;2.40;78.50;;;1.35;65.23;93736.91;5056231;28;20641;-80
2021/12/08 08:05:28;;;;;;;39.67;20.60;;;2.40;78.50;;;1.35;65.48;93742.09;5072855;28;20211;-80
2021/12/08 08:08:02;;;;;;;38.22;20.77;;;2.40;78.40;;;1.37;65.39;93747.09;5056219;28;20230;-81
2021/12/08 08:10:33;;;;;;;38.10;19.15;;;2.50;78.50;;;1.39;65.41;93743.38;5039904;28;20284;-80
2021/12/08 08:13:02;;;;;;;38.22;20.65;;;2.40;78.50;;;1.40;65.36;93750.16;5071960;28;20209;-80
2021/12/08 08:15:37;;;;;;;38.53;19.98;;;2.40;78.40;;;1.41;65.08;93736.25;5055511;28;20219;-80
2021/12/08 08:18:08;;;;;;;43.22;21.98;;;2.40;78.40;;;1.42;65.33;93734.50;5055515;28;20675;-80
2021/12/08 08:20:48;;;;;;;43.28;22.98;;;2.40;78.40;;;1.41;64.95;93738.84;5055594;28;20223;-80
2021/12/08 08:23:19;;;;;;;42.20;21.88;;;2.40;78.30;;;1.41;65.14;93728.50;5055996;28;20218;-81
2021/12/08 08:25:50;;;;;;;45.53;23.45;;;2.40;78.30;;;1.40;65.08;93711.41;5055431;28;20242;-81
2021/12/08 08:28:18;;;;;;;38.92;22.15;;;2.40;78.20;;;1.40;64.99;93718.34;5051572;28;20204;-81
2021/12/08 08:30:58;;;;;;;40.67;20.67;;;2.40;78.10;;;1.40;64.95;93726.91;5052397;28;20216;-80
2021/12/08 08:33:33;;;;;;;42.72;22.65;;;2.40;78.10;;;1.37;64.81;93723.84;5052212;28;20203;-82
2021/12/08 08:36:07;;;;;;;46.15;22.15;;;2.40;78.10;;;1.35;64.80;93726.59;5053730;28;20615;-81
2021/12/08 08:38:50;;;;;;;44.78;23.17;;;2.40;78.00;;;1.34;64.69;93727.56;5053582;28;20253;-81
2021/12/08 08:41:28;;;;;;;42.55;22.80;;;2.50;78.00;;;1.30;65.19;93722.91;5084350;28;20200;-81
2021/12/08 08:44:00;;;;;;;43.35;22.08;;;2.40;78.70;;;1.31;65.05;93738.22;5051500;28;20216;-82
2021/12/08 08:46:34;;;;;;;39.72;21.00;;;2.40;77.90;;;1.27;64.49;93726.63;5086127;28;20218;-81
2021/12/08 08:49:09;;;;;;;42.58;21.75;;;2.40;77.90;;;1.30;64.76;93728.06;5069774;28;20220;-80
2021/12/08 08:52:00;;;;;;;40.58;22.00;;;2.40;77.90;;;1.30;64.31;93728.84;5038315;28;20702;-80
2021/12/08 08:54:38;;;;;;;44.20;23.08;;;2.30;77.80;;;1.29;64.53;93724.66;5038542;28;20613;-80
2021/12/08 08:57:10;;;;;;;45.17;22.52;;;2.40;77.90;;;1.32;64.74;93736.44;5071463;28;20290;-80
2021/12/08 08:59:53;;;;;;;38.97;20.98;;;2.30;77.90;;;1.35;64.73;93725.78;5071926;28;20273;-81
2021/12/08 09:02:39;;;;;;;40.40;22.20;;;2.30;78.00;;;1.37;64.64;93734.97;5039012;28;20195;-81
2021/12/08 09:05:15;;;;;;;42.70;20.42;;;2.40;77.90;;;1.38;64.55;93736.59;5055458;28;20219;-81
2021/12/08 09:08:05;;;;;;;41.08;20.63;;;2.40;77.90;;;1.42;64.73;93731.91;5084559;28;20191;-80
2021/12/08 09:11:06;;;;;;;40.15;20.23;;;2.40;78.00;;;1.47;64.58;93727.06;5054950;28;20226;-82
2021/12/08 09:14:00;;;;;;;45.88;22.40;;;2.40;78.00;;;1.49;64.55;93725.13;5088371;28;20202;-82
2021/12/08 09:16:42;;;;;;;40.95;20.55;;;2.40;77.90;;;1.50;64.49;93724.16;5061320;28;20199;-80
2021/12/08 09:19:41;;;;;;;42.35;22.20;;;2.40;77.80;;;1.52;64.44;93719.59;5068156;28;20212;-81
2021/12/08 09:22:20;;;;;;;44.97;20.58;;;2.50;77.90;;;1.56;64.40;93715.72;5036106;28;20216;-81
2021/12/08 09:25:18;;;;;;;38.83;18.90;;;2.50;78.00;;;1.56;64.45;93710.56;5055007;28;20758;-81
2021/12/08 09:27:54;;;;;;;41.47;20.33;;;2.50;77.80;;;1.60;64.42;93709.25;5053831;28;20281;-81
2021/12/08 09:30:56;;;;;;;40.58;19.67;;;2.50;77.70;;;1.62;64.24;93703.09;5035630;28;20685;-81
2021/12/08 09:33:36;;;;;;;35.28;18.55;;;2.60;77.70;;;1.66;64.40;93705.19;5066050;28;20252;-80
2021/12/08 09:36:10;;;;;;;35.15;18.73;;;2.70;77.90;;;1.69;64.33;93702.25;5070113;28;20318;-79
2021/12/08 09:38:50;;;;;;;40.33;20.50;;;2.60;77.90;;;1.71;64.39;93695.16;5037790;28;20199;-81
2021/12/08 09:41:42;;;;;;;42.63;21.23;;;2.60;77.80;;;1.71;64.20;93690.00;5056018;28;20253;-82
2021/12/08 09:44:20;;;;;;;42.67;21.92;;;2.70;77.80;;;1.72;63.94;93680.44;5071249;28;20250;-82
2021/12/08 09:46:49;;;;;;;38.50;21.63;;;2.70;77.60;;;1.64;64.04;93665.00;5054840;28;20191;-82
2021/12/08 09:49:23;;;;;;;47.35;22.60;;;2.70;77.50;;;1.68;63.81;93666.25;5071402;28;20292;-80
2021/12/08 09:51:53;;;;;;;41.08;21.60;;;2.70;77.50;;;1.67;63.93;93662.06;5038387;28;20198;-82
2021/12/08 09:54:21;;;;;;;40.20;22.23;;;2.70;77.50;;;1.67;64.38;93654.31;5037545;28;20211;-80
2021/12/08 09:56:50;;;;;;;42.90;21.77;;;2.70;77.50;;;1.71;64.00;93652.97;5050174;28;20569;-81
2021/12/08 09:59:19;;;;;;;38.95;21.15;;;2.70;77.50;;;1.71;64.26;93653.81;5068080;28;20220;-81
2021/12/08 10:01:47;;;;;;;41.47;22.35;;;2.70;77.50;;;1.76;63.78;93659.25;5076217;28;20212;-80
2021/12/08 10:04:15;;;;;;;39.33;21.45;;;2.70;77.60;;;1.82;64.24;93672.47;5069836;28;20219;-81
2021/12/08 10:06:49;;;;;;;40.60;22.08;;;2.70;77.70;;;1.86;63.95;93659.06;5058038;28;20560;-81
2021/12/08 10:09:20;;;;;;;38.55;20.88;;;2.70;77.70;;;1.93;64.05;93661.78;5059016;28;20672;-80
2021/12/08 10:11:49;;;;;;;36.65;20.60;;;2.80;77.70;;;2.03;64.05;93653.81;5091339;28;20218;-79
2021/12/08 10:14:18;;;;;;;38.25;19.95;;;2.80;77.80;;;2.07;63.96;93639.56;5043066;28;20719;-80
2021/12/08 10:16:51;;;;;;;38.95;21.10;;;2.80;77.80;;;2.12;63.75;93628.69;5074342;28;20290;-80
2021/12/08 10:19:20;;;;;;;38.70;20.70;;;2.90;77.60;;;2.13;63.82;93623.34;5054660;28;20301;-80
2021/12/08 10:21:49;;;;;;;42.88;22.27;;;2.90;77.50;;;2.12;63.45;93629.50;5050200;28;20249;-80
2021/12/08 10:24:24;;;;;;;40.03;20.77;;;3.00;77.50;;;2.10;63.36;93613.38;5074232;28;20231;-79
2021/12/08 10:27:05;;;;;;;41.80;21.35;;;2.90;77.20;;;2.06;63.35;93622.41;5054191;28;20203;-80
2021/12/08 10:29:34;;;;;;;38.05;20.45;;;3.00;77.30;;;2.04;63.35;93619.22;5051312;28;20227;-79
2021/12/08 10:32:03;;;;;;;36.13;19.45;;;3.00;77.30;;;2.07;63.67;93611.09;5072415;28;20191;-79
2021/12/08 10:34:46;;;;;;;42.80;22.42;;;3.00;77.30;;;2.06;63.57;93599.97;5057252;28;20223;-79
2021/12/08 10:37:20;;;;;;;44.00;23.30;;;3.00;77.30;;;2.10;63.46;93599.59;5040174;28;20290;-79
2021/12/08 10:39:52;;;;;;;43.88;24.42;;;3.00;77.20;;;2.05;63.48;93595.75;5056736;28;20583;-78
2021/12/08 10:42:26;;;;;;;46.45;23.98;;;3.00;77.10;;;2.06;63.29;93605.13;5057635;28;20354;-78
2021/12/08 10:47:57;;;;;;;45.13;24.33;;;3.00;76.80;;;1.98;63.02;93588.84;5056789;28;20206;-79
2021/12/08 10:56:24;;;;;;;50.38;25.98;;;3.00;76.80;;;1.90;63.13;93587.13;5058759;28;20218;-80
2021/12/08 10:58:58;;;;;;;44.25;24.75;;;2.90;76.80;;;1.88;62.97;93589.91;5038564;28;20231;-80
2021/12/08 11:01:27;;;;;;;45.20;24.65;;;2.90;76.80;;;1.89;63.30;93572.59;5056186;28;20208;-81
2021/12/08 11:04:06;;;;;;;44.63;24.10;;;3.00;77.00;;;1.88;63.12;93566.63;5079681;28;20220;-81
2021/12/08 11:06:37;;;;;;;39.83;21.75;;;2.90;76.80;;;1.86;63.38;93570.38;5070758;28;20187;-80
2021/12/08 11:09:17;;;;;;;37.08;20.25;;;2.90;76.80;;;1.83;63.20;93575.84;5055690;28;20294;-79
2021/12/08 11:11:46;;;;;;;35.92;20.42;;;2.80;76.70;;;1.82;63.08;93584.59;5082606;28;20195;-80
2021/12/08 11:14:14;;;;;;;36.20;19.58;;;2.80;76.80;;;1.81;63.26;93580.38;5076699;28;20230;-80
2021/12/08 11:16:44;;;;;;;37.33;20.48;;;2.80;76.80;;;1.78;63.52;93568.63;5054581;28;20207;-80
2021/12/08 11:19:22;;;;;;;35.78;19.67;;;2.80;76.80;;;1.75;63.12;93564.59;5051433;28;20231;-81
2021/12/08 11:21:55;;;;;;;35.72;20.67;;;2.80;76.80;;;1.74;63.27;93568.16;5064030;28;20543;-80
2021/12/08 11:24:42;;;;;;;33.80;19.08;;;2.80;76.90;;;1.75;63.27;93568.97;5047804;28;20230;-79
2021/12/08 11:27:09;;;;;;;38.55;20.42;;;2.80;76.80;;;1.74;63.22;93565.56;5037910;28;20206;-80
2021/12/08 11:29:40;;;;;;;36.72;20.08;;;2.80;76.90;;;1.75;63.03;93568.97;5080667;28;20218;-79
2021/12/08 11:32:18;;;;;;;37.75;20.23;;;2.70;77.60;;;1.74;63.21;93552.63;5071454;28;20190;-79
2021/12/08 11:34:51;;;;;;;37.15;21.60;;;2.70;76.80;;;1.71;63.46;93554.75;5071676;28;20207;-79
2021/12/08 11:37:22;;;;;;;38.35;22.10;;;2.70;76.70;;;1.66;63.15;93555.28;5055038;28;20208;-79
2021/12/08 11:39:58;;;;;;;34.83;20.02;;;2.70;76.70;;;1.66;63.21;93563.06;5055805;28;20212;-80
2021/12/08 11:42:35;;;;;;;37.55;20.27;;;2.70;76.70;;;1.62;63.49;93551.44;5031574;28;20192;-79